sensor_id;sensor_type;location;lat;lon;timestamp;P1;durP1;ratioP1;P2;durP2;ratioP2
29210;SDS011;16250;49.932;10.980;2024-02-21T00:01:21;18.35;;;7.40;;
29210;SDS011;16250;49.932;10.980;2024-02-21T00:03:47;19.20;;;7.90;;
29210;SDS011;16250;49.932;10.980;2024-02-21T00:06:12;17.88;;;7.25;;
29210;SDS011;16250;49.932;10.980;2024-02-21T00:08:38;19.40;;;7.90;;
29210;SDS011;16250;49.932;10.980;2024-02-21T00:11:03;17.15;;;7.60;;
29210;SDS011;16250;49.932;10.980;2024-02-21T00:13:29;20.58;;;7.40;;
29210;SDS011;16250;49.932;10.980;2024-02-21T00:15:55;16.02;;;7.15;;
29210;SDS011;16250;49.932;10.980;2024-02-21T00:18:20;20.90;;;6.93;;
29210;SDS011;16250;49.932;10.980;2024-02-21T00:20:46;14.07;;;6.63;;
29210;SDS011;16250;49.932;10.980;2024-02-21T00:23:11;15.73;;;6.80;;
29210;SDS011;16250;49.932;10.980;2024-02-21T00:25:37;14.80;;;6.72;;
29210;SDS011;16250;49.932;10.980;2024-02-21T00:28:02;15.60;;;6.68;;
29210;SDS011;16250;49.932;10.980;2024-02-21T00:30:28;14.93;;;6.75;;
29210;SDS011;16250;49.932;10.980;2024-02-21T00:32:53;20.83;;;7.32;;
29210;SDS011;16250;49.932;10.980;2024-02-21T00:35:19;15.75;;;6.97;;
29210;SDS011;16250;49.932;10.980;2024-02-21T00:37:45;14.85;;;6.47;;
29210;SDS011;16250;49.932;10.980;2024-02-21T00:40:10;17.40;;;6.30;;
29210;SDS011;16250;49.932;10.980;2024-02-21T00:42:36;16.48;;;7.35;;
29210;SDS011;16250;49.932;10.980;2024-02-21T00:45:01;18.27;;;7.15;;
29210;SDS011;16250;49.932;10.980;2024-02-21T00:47:27;16.00;;;6.95;;
29210;SDS011;16250;49.932;10.980;2024-02-21T00:49:52;19.05;;;7.03;;
29210;SDS011;16250;49.932;10.980;2024-02-21T00:52:18;15.43;;;6.60;;
29210;SDS011;16250;49.932;10.980;2024-02-21T00:54:43;20.50;;;7.28;;
29210;SDS011;16250;49.932;10.980;2024-02-21T00:57:09;18.38;;;7.28;;
29210;SDS011;16250;49.932;10.980;2024-02-21T00:59:34;15.35;;;6.60;;
29210;SDS011;16250;49.932;10.980;2024-02-21T01:02:00;16.33;;;6.28;;
29210;SDS011;16250;49.932;10.980;2024-02-21T01:04:25;16.65;;;7.32;;
29210;SDS011;16250;49.932;10.980;2024-02-21T01:06:51;13.45;;;6.95;;
29210;SDS011;16250;49.932;10.980;2024-02-21T01:09:16;13.23;;;6.55;;
29210;SDS011;16250;49.932;10.980;2024-02-21T01:11:41;14.05;;;6.97;;
29210;SDS011;16250;49.932;10.980;2024-02-21T01:14:07;16.60;;;7.05;;
29210;SDS011;16250;49.932;10.980;2024-02-21T01:16:32;14.48;;;6.72;;
29210;SDS011;16250;49.932;10.980;2024-02-21T01:18:58;16.67;;;7.32;;
29210;SDS011;16250;49.932;10.980;2024-02-21T01:21:23;17.48;;;7.28;;
29210;SDS011;16250;49.932;10.980;2024-02-21T01:23:48;17.25;;;6.93;;
29210;SDS011;16250;49.932;10.980;2024-02-21T01:26:14;17.13;;;7.55;;
29210;SDS011;16250;49.932;10.980;2024-02-21T01:28:41;18.80;;;7.22;;
29210;SDS011;16250;49.932;10.980;2024-02-21T01:31:06;16.52;;;7.82;;
29210;SDS011;16250;49.932;10.980;2024-02-21T01:33:32;17.95;;;7.47;;
29210;SDS011;16250;49.932;10.980;2024-02-21T01:36:03;22.67;;;8.02;;
29210;SDS011;16250;49.932;10.980;2024-02-21T01:38:29;20.33;;;7.93;;
29210;SDS011;16250;49.932;10.980;2024-02-21T01:40:55;19.30;;;7.28;;
29210;SDS011;16250;49.932;10.980;2024-02-21T01:43:21;18.58;;;7.88;;
29210;SDS011;16250;49.932;10.980;2024-02-21T01:45:48;18.77;;;7.55;;
29210;SDS011;16250;49.932;10.980;2024-02-21T01:48:16;18.67;;;7.82;;
29210;SDS011;16250;49.932;10.980;2024-02-21T01:50:42;16.58;;;7.32;;
29210;SDS011;16250;49.932;10.980;2024-02-21T01:53:09;21.35;;;7.95;;
29210;SDS011;16250;49.932;10.980;2024-02-21T01:55:34;21.77;;;8.40;;
29210;SDS011;16250;49.932;10.980;2024-02-21T01:58:00;17.30;;;7.40;;
29210;SDS011;16250;49.932;10.980;2024-02-21T02:00:26;16.33;;;7.63;;
29210;SDS011;16250;49.932;10.980;2024-02-21T02:02:51;18.55;;;8.23;;
29210;SDS011;16250;49.932;10.980;2024-02-21T02:05:17;15.18;;;7.50;;
29210;SDS011;16250;49.932;10.980;2024-02-21T02:07:46;15.93;;;7.28;;
29210;SDS011;16250;49.932;10.980;2024-02-21T02:10:11;17.70;;;7.97;;
29210;SDS011;16250;49.932;10.980;2024-02-21T02:12:37;15.60;;;7.68;;
29210;SDS011;16250;49.932;10.980;2024-02-21T02:15:03;16.75;;;7.95;;
29210;SDS011;16250;49.932;10.980;2024-02-21T02:17:31;16.63;;;7.93;;
29210;SDS011;16250;49.932;10.980;2024-02-21T02:19:57;18.27;;;8.55;;
29210;SDS011;16250;49.932;10.980;2024-02-21T02:22:24;19.10;;;7.65;;
29210;SDS011;16250;49.932;10.980;2024-02-21T02:24:55;17.77;;;8.15;;
29210;SDS011;16250;49.932;10.980;2024-02-21T02:27:20;18.13;;;7.72;;
29210;SDS011;16250;49.932;10.980;2024-02-21T02:29:48;19.60;;;7.88;;
29210;SDS011;16250;49.932;10.980;2024-02-21T02:32:14;17.98;;;7.82;;
29210;SDS011;16250;49.932;10.980;2024-02-21T02:34:39;16.85;;;7.50;;
29210;SDS011;16250;49.932;10.980;2024-02-21T02:37:04;18.88;;;8.57;;
29210;SDS011;16250;49.932;10.980;2024-02-21T02:39:30;18.25;;;7.57;;
29210;SDS011;16250;49.932;10.980;2024-02-21T02:41:55;23.40;;;8.07;;
29210;SDS011;16250;49.932;10.980;2024-02-21T02:44:21;16.50;;;7.65;;
29210;SDS011;16250;49.932;10.980;2024-02-21T02:46:46;18.23;;;8.13;;
29210;SDS011;16250;49.932;10.980;2024-02-21T02:49:12;16.23;;;8.07;;
29210;SDS011;16250;49.932;10.980;2024-02-21T02:51:41;19.27;;;8.10;;
29210;SDS011;16250;49.932;10.980;2024-02-21T02:54:07;19.83;;;8.45;;
29210;SDS011;16250;49.932;10.980;2024-02-21T02:56:33;19.45;;;8.23;;
29210;SDS011;16250;49.932;10.980;2024-02-21T02:58:58;19.33;;;9.00;;
29210;SDS011;16250;49.932;10.980;2024-02-21T03:01:23;21.35;;;8.43;;
29210;SDS011;16250;49.932;10.980;2024-02-21T03:03:49;19.83;;;8.95;;
29210;SDS011;16250;49.932;10.980;2024-02-21T03:06:14;20.73;;;8.90;;
29210;SDS011;16250;49.932;10.980;2024-02-21T03:08:40;21.77;;;8.50;;
29210;SDS011;16250;49.932;10.980;2024-02-21T03:11:05;19.15;;;8.15;;
29210;SDS011;16250;49.932;10.980;2024-02-21T03:13:31;18.33;;;8.15;;
29210;SDS011;16250;49.932;10.980;2024-02-21T03:15:56;15.90;;;7.95;;
29210;SDS011;16250;49.932;10.980;2024-02-21T03:18:22;19.90;;;8.73;;
29210;SDS011;16250;49.932;10.980;2024-02-21T03:20:47;18.48;;;8.38;;
29210;SDS011;16250;49.932;10.980;2024-02-21T03:23:13;21.33;;;8.63;;
29210;SDS011;16250;49.932;10.980;2024-02-21T03:25:38;22.95;;;9.00;;
29210;SDS011;16250;49.932;10.980;2024-02-21T03:28:04;23.27;;;9.98;;
29210;SDS011;16250;49.932;10.980;2024-02-21T03:30:29;21.95;;;9.63;;
29210;SDS011;16250;49.932;10.980;2024-02-21T03:32:55;19.90;;;9.18;;
29210;SDS011;16250;49.932;10.980;2024-02-21T03:35:20;23.88;;;10.02;;
29210;SDS011;16250;49.932;10.980;2024-02-21T03:37:46;22.08;;;10.15;;
29210;SDS011;16250;49.932;10.980;2024-02-21T03:40:11;22.30;;;9.65;;
29210;SDS011;16250;49.932;10.980;2024-02-21T03:42:37;22.60;;;10.10;;
29210;SDS011;16250;49.932;10.980;2024-02-21T03:45:03;22.63;;;9.73;;
29210;SDS011;16250;49.932;10.980;2024-02-21T03:47:29;20.35;;;10.27;;
29210;SDS011;16250;49.932;10.980;2024-02-21T03:49:54;23.80;;;11.00;;
29210;SDS011;16250;49.932;10.980;2024-02-21T03:52:20;27.25;;;10.88;;
29210;SDS011;16250;49.932;10.980;2024-02-21T03:54:45;21.25;;;10.13;;
29210;SDS011;16250;49.932;10.980;2024-02-21T03:57:10;24.45;;;11.23;;
29210;SDS011;16250;49.932;10.980;2024-02-21T03:59:36;30.45;;;10.95;;
29210;SDS011;16250;49.932;10.980;2024-02-21T04:02:01;24.95;;;11.38;;
29210;SDS011;16250;49.932;10.980;2024-02-21T04:04:29;24.50;;;11.93;;
29210;SDS011;16250;49.932;10.980;2024-02-21T04:06:54;24.83;;;11.60;;
29210;SDS011;16250;49.932;10.980;2024-02-21T04:09:20;22.98;;;10.77;;
29210;SDS011;16250;49.932;10.980;2024-02-21T04:11:45;24.13;;;11.25;;
29210;SDS011;16250;49.932;10.980;2024-02-21T04:14:11;22.92;;;11.73;;
29210;SDS011;16250;49.932;10.980;2024-02-21T04:16:36;28.40;;;11.50;;
29210;SDS011;16250;49.932;10.980;2024-02-21T04:19:02;24.35;;;12.95;;
29210;SDS011;16250;49.932;10.980;2024-02-21T04:21:27;31.67;;;14.27;;
29210;SDS011;16250;49.932;10.980;2024-02-21T04:23:53;29.75;;;12.85;;
29210;SDS011;16250;49.932;10.980;2024-02-21T04:26:18;26.75;;;12.13;;
29210;SDS011;16250;49.932;10.980;2024-02-21T04:28:44;29.15;;;12.50;;
29210;SDS011;16250;49.932;10.980;2024-02-21T04:31:10;26.67;;;13.85;;
29210;SDS011;16250;49.932;10.980;2024-02-21T04:33:35;24.63;;;13.27;;
29210;SDS011;16250;49.932;10.980;2024-02-21T04:36:01;26.60;;;12.50;;
29210;SDS011;16250;49.932;10.980;2024-02-21T04:38:27;25.95;;;12.50;;
29210;SDS011;16250;49.932;10.980;2024-02-21T04:40:54;27.65;;;11.55;;
29210;SDS011;16250;49.932;10.980;2024-02-21T04:43:23;23.90;;;12.13;;
29210;SDS011;16250;49.932;10.980;2024-02-21T04:45:49;26.75;;;13.32;;
29210;SDS011;16250;49.932;10.980;2024-02-21T04:48:14;28.05;;;14.27;;
29210;SDS011;16250;49.932;10.980;2024-02-21T04:50:40;26.27;;;13.77;;
29210;SDS011;16250;49.932;10.980;2024-02-21T04:53:06;22.13;;;11.73;;
29210;SDS011;16250;49.932;10.980;2024-02-21T04:55:31;26.85;;;12.75;;
29210;SDS011;16250;49.932;10.980;2024-02-21T04:57:57;24.25;;;11.52;;
29210;SDS011;16250;49.932;10.980;2024-02-21T05:00:22;27.75;;;11.40;;
29210;SDS011;16250;49.932;10.980;2024-02-21T05:02:48;29.15;;;11.43;;
29210;SDS011;16250;49.932;10.980;2024-02-21T05:05:13;25.55;;;11.60;;
29210;SDS011;16250;49.932;10.980;2024-02-21T05:07:40;21.75;;;11.45;;
29210;SDS011;16250;49.932;10.980;2024-02-21T05:10:07;28.77;;;13.40;;
29210;SDS011;16250;49.932;10.980;2024-02-21T05:12:32;29.88;;;13.40;;
29210;SDS011;16250;49.932;10.980;2024-02-21T05:14:58;23.45;;;13.15;;
29210;SDS011;16250;49.932;10.980;2024-02-21T05:17:23;45.47;;;25.35;;
29210;SDS011;16250;49.932;10.980;2024-02-21T05:19:49;32.25;;;19.30;;
29210;SDS011;16250;49.932;10.980;2024-02-21T05:22:14;23.60;;;12.05;;
29210;SDS011;16250;49.932;10.980;2024-02-21T05:24:39;21.25;;;10.95;;
29210;SDS011;16250;49.932;10.980;2024-02-21T05:27:07;23.02;;;11.35;;
29210;SDS011;16250;49.932;10.980;2024-02-21T05:29:37;22.67;;;11.38;;
29210;SDS011;16250;49.932;10.980;2024-02-21T05:32:03;22.52;;;10.68;;
29210;SDS011;16250;49.932;10.980;2024-02-21T05:34:30;22.48;;;11.27;;
29210;SDS011;16250;49.932;10.980;2024-02-21T05:36:55;22.92;;;11.50;;
29210;SDS011;16250;49.932;10.980;2024-02-21T05:39:22;25.40;;;11.63;;
29210;SDS011;16250;49.932;10.980;2024-02-21T05:41:48;23.42;;;12.10;;
29210;SDS011;16250;49.932;10.980;2024-02-21T05:44:15;30.33;;;16.60;;
29210;SDS011;16250;49.932;10.980;2024-02-21T05:46:40;26.42;;;15.02;;
29210;SDS011;16250;49.932;10.980;2024-02-21T05:49:06;21.80;;;13.65;;
29210;SDS011;16250;49.932;10.980;2024-02-21T05:51:32;33.60;;;14.13;;
29210;SDS011;16250;49.932;10.980;2024-02-21T05:53:58;20.92;;;12.48;;
29210;SDS011;16250;49.932;10.980;2024-02-21T05:56:24;26.30;;;12.77;;
29210;SDS011;16250;49.932;10.980;2024-02-21T05:58:50;24.85;;;13.95;;
29210;SDS011;16250;49.932;10.980;2024-02-21T06:01:15;31.48;;;14.00;;
29210;SDS011;16250;49.932;10.980;2024-02-21T06:03:40;28.58;;;13.65;;
29210;SDS011;16250;49.932;10.980;2024-02-21T06:06:06;27.80;;;13.63;;
29210;SDS011;16250;49.932;10.980;2024-02-21T06:08:31;25.38;;;13.45;;
29210;SDS011;16250;49.932;10.980;2024-02-21T06:11:00;30.65;;;14.25;;
29210;SDS011;16250;49.932;10.980;2024-02-21T06:13:25;24.02;;;13.85;;
29210;SDS011;16250;49.932;10.980;2024-02-21T06:15:50;24.15;;;13.45;;
29210;SDS011;16250;49.932;10.980;2024-02-21T06:18:19;28.38;;;13.73;;
29210;SDS011;16250;49.932;10.980;2024-02-21T06:20:45;34.95;;;18.23;;
29210;SDS011;16250;49.932;10.980;2024-02-21T06:23:14;34.45;;;20.85;;
29210;SDS011;16250;49.932;10.980;2024-02-21T06:25:40;29.55;;;19.70;;
29210;SDS011;16250;49.932;10.980;2024-02-21T06:28:06;41.25;;;21.30;;
29210;SDS011;16250;49.932;10.980;2024-02-21T06:30:31;39.20;;;19.70;;
29210;SDS011;16250;49.932;10.980;2024-02-21T06:32:56;37.80;;;21.20;;
29210;SDS011;16250;49.932;10.980;2024-02-21T06:35:22;39.65;;;21.08;;
29210;SDS011;16250;49.932;10.980;2024-02-21T06:37:50;33.47;;;18.58;;
29210;SDS011;16250;49.932;10.980;2024-02-21T06:40:17;27.75;;;15.77;;
29210;SDS011;16250;49.932;10.980;2024-02-21T06:42:48;29.25;;;16.38;;
29210;SDS011;16250;49.932;10.980;2024-02-21T06:45:14;29.25;;;16.63;;
29210;SDS011;16250;49.932;10.980;2024-02-21T06:47:40;29.42;;;17.17;;
29210;SDS011;16250;49.932;10.980;2024-02-21T06:50:05;25.55;;;14.93;;
29210;SDS011;16250;49.932;10.980;2024-02-21T06:52:31;23.52;;;13.85;;
29210;SDS011;16250;49.932;10.980;2024-02-21T06:54:56;25.83;;;13.90;;
29210;SDS011;16250;49.932;10.980;2024-02-21T06:57:22;25.30;;;13.07;;
29210;SDS011;16250;49.932;10.980;2024-02-21T06:59:48;25.23;;;13.70;;
29210;SDS011;16250;49.932;10.980;2024-02-21T07:02:13;28.25;;;14.25;;
29210;SDS011;16250;49.932;10.980;2024-02-21T07:04:39;27.10;;;15.25;;
29210;SDS011;16250;49.932;10.980;2024-02-21T07:07:04;34.08;;;16.70;;
29210;SDS011;16250;49.932;10.980;2024-02-21T07:09:29;29.00;;;15.70;;
29210;SDS011;16250;49.932;10.980;2024-02-21T07:11:57;25.88;;;15.65;;
29210;SDS011;16250;49.932;10.980;2024-02-21T07:14:23;23.40;;;14.07;;
29210;SDS011;16250;49.932;10.980;2024-02-21T07:16:48;26.13;;;13.18;;
29210;SDS011;16250;49.932;10.980;2024-02-21T07:19:13;25.92;;;13.20;;
29210;SDS011;16250;49.932;10.980;2024-02-21T07:21:39;29.17;;;14.68;;
29210;SDS011;16250;49.932;10.980;2024-02-21T07:24:06;22.80;;;13.85;;
29210;SDS011;16250;49.932;10.980;2024-02-21T07:26:31;24.27;;;13.35;;
29210;SDS011;16250;49.932;10.980;2024-02-21T07:28:57;23.27;;;13.52;;
29210;SDS011;16250;49.932;10.980;2024-02-21T07:31:22;22.88;;;13.73;;
29210;SDS011;16250;49.932;10.980;2024-02-21T07:33:48;26.25;;;13.18;;
29210;SDS011;16250;49.932;10.980;2024-02-21T07:36:14;23.80;;;13.15;;
29210;SDS011;16250;49.932;10.980;2024-02-21T07:38:40;21.67;;;12.85;;
29210;SDS011;16250;49.932;10.980;2024-02-21T07:41:06;25.38;;;13.18;;
29210;SDS011;16250;49.932;10.980;2024-02-21T07:43:32;24.30;;;12.23;;
29210;SDS011;16250;49.932;10.980;2024-02-21T07:45:57;24.08;;;12.60;;
29210;SDS011;16250;49.932;10.980;2024-02-21T07:48:23;25.17;;;13.25;;
29210;SDS011;16250;49.932;10.980;2024-02-21T07:50:52;51.80;;;34.55;;
29210;SDS011;16250;49.932;10.980;2024-02-21T07:53:17;39.55;;;25.50;;
29210;SDS011;16250;49.932;10.980;2024-02-21T07:55:43;40.28;;;26.13;;
29210;SDS011;16250;49.932;10.980;2024-02-21T07:58:08;43.05;;;32.10;;
29210;SDS011;16250;49.932;10.980;2024-02-21T08:00:33;69.40;;;48.85;;
29210;SDS011;16250;49.932;10.980;2024-02-21T08:02:59;46.63;;;28.33;;
29210;SDS011;16250;49.932;10.980;2024-02-21T08:05:24;23.13;;;14.20;;
29210;SDS011;16250;49.932;10.980;2024-02-21T08:07:50;24.50;;;12.68;;
29210;SDS011;16250;49.932;10.980;2024-02-21T08:10:15;43.63;;;32.00;;
29210;SDS011;16250;49.932;10.980;2024-02-21T08:12:40;24.00;;;14.88;;
29210;SDS011;16250;49.932;10.980;2024-02-21T08:15:06;22.55;;;12.68;;
29210;SDS011;16250;49.932;10.980;2024-02-21T08:17:33;20.50;;;11.63;;
29210;SDS011;16250;49.932;10.980;2024-02-21T08:19:59;20.60;;;12.00;;
29210;SDS011;16250;49.932;10.980;2024-02-21T08:22:24;26.15;;;13.90;;
29210;SDS011;16250;49.932;10.980;2024-02-21T08:24:49;25.13;;;13.18;;
29210;SDS011;16250;49.932;10.980;2024-02-21T08:27:15;18.02;;;11.98;;
29210;SDS011;16250;49.932;10.980;2024-02-21T08:29:40;20.52;;;11.73;;
29210;SDS011;16250;49.932;10.980;2024-02-21T08:32:06;21.75;;;10.48;;
29210;SDS011;16250;49.932;10.980;2024-02-21T08:34:31;18.30;;;10.48;;
29210;SDS011;16250;49.932;10.980;2024-02-21T08:36:59;18.13;;;10.32;;
29210;SDS011;16250;49.932;10.980;2024-02-21T08:39:24;20.20;;;10.25;;
29210;SDS011;16250;49.932;10.980;2024-02-21T08:41:50;24.83;;;9.88;;
29210;SDS011;16250;49.932;10.980;2024-02-21T08:44:16;19.38;;;10.35;;
29210;SDS011;16250;49.932;10.980;2024-02-21T08:46:41;17.52;;;9.90;;
29210;SDS011;16250;49.932;10.980;2024-02-21T08:49:10;19.98;;;10.45;;
29210;SDS011;16250;49.932;10.980;2024-02-21T08:51:35;19.25;;;10.57;;
29210;SDS011;16250;49.932;10.980;2024-02-21T08:54:00;18.30;;;10.50;;
29210;SDS011;16250;49.932;10.980;2024-02-21T08:56:27;18.52;;;9.93;;
29210;SDS011;16250;49.932;10.980;2024-02-21T08:58:52;21.58;;;11.00;;
29210;SDS011;16250;49.932;10.980;2024-02-21T09:01:17;22.50;;;10.77;;
29210;SDS011;16250;49.932;10.980;2024-02-21T09:03:43;15.52;;;10.13;;
29210;SDS011;16250;49.932;10.980;2024-02-21T09:06:09;21.98;;;11.05;;
29210;SDS011;16250;49.932;10.980;2024-02-21T09:08:35;21.83;;;10.43;;
29210;SDS011;16250;49.932;10.980;2024-02-21T09:11:00;16.45;;;10.32;;
29210;SDS011;16250;49.932;10.980;2024-02-21T09:13:26;20.15;;;10.18;;
29210;SDS011;16250;49.932;10.980;2024-02-21T09:15:53;21.75;;;12.43;;
29210;SDS011;16250;49.932;10.980;2024-02-21T09:18:18;15.73;;;10.60;;
29210;SDS011;16250;49.932;10.980;2024-02-21T09:20:44;20.23;;;10.25;;
29210;SDS011;16250;49.932;10.980;2024-02-21T09:23:10;19.88;;;10.35;;
29210;SDS011;16250;49.932;10.980;2024-02-21T09:25:35;21.40;;;11.32;;
29210;SDS011;16250;49.932;10.980;2024-02-21T09:28:01;17.08;;;8.48;;
29210;SDS011;16250;49.932;10.980;2024-02-21T09:30:27;20.23;;;9.68;;
29210;SDS011;16250;49.932;10.980;2024-02-21T09:32:52;21.63;;;9.70;;
29210;SDS011;16250;49.932;10.980;2024-02-21T09:35:18;19.08;;;8.43;;
29210;SDS011;16250;49.932;10.980;2024-02-21T09:37:44;15.98;;;8.90;;
29210;SDS011;16250;49.932;10.980;2024-02-21T09:40:09;13.77;;;8.30;;
29210;SDS011;16250;49.932;10.980;2024-02-21T09:45:03;16.23;;;7.70;;
29210;SDS011;16250;49.932;10.980;2024-02-21T09:47:50;13.88;;;7.05;;
29210;SDS011;16250;49.932;10.980;2024-02-21T09:50:23;18.48;;;7.63;;
29210;SDS011;16250;49.932;10.980;2024-02-21T09:52:49;15.70;;;7.15;;
29210;SDS011;16250;49.932;10.980;2024-02-21T09:55:16;12.77;;;6.97;;
29210;SDS011;16250;49.932;10.980;2024-02-21T09:57:43;19.50;;;9.65;;
29210;SDS011;16250;49.932;10.980;2024-02-21T10:00:09;13.32;;;7.05;;
29210;SDS011;16250;49.932;10.980;2024-02-21T10:02:39;15.07;;;7.47;;
29210;SDS011;16250;49.932;10.980;2024-02-21T10:05:04;17.98;;;7.72;;
29210;SDS011;16250;49.932;10.980;2024-02-21T10:07:33;13.70;;;7.28;;
29210;SDS011;16250;49.932;10.980;2024-02-21T10:10:07;16.63;;;6.82;;
29210;SDS011;16250;49.932;10.980;2024-02-21T10:12:33;13.27;;;6.80;;
29210;SDS011;16250;49.932;10.980;2024-02-21T10:15:05;17.38;;;7.05;;
29210;SDS011;16250;49.932;10.980;2024-02-21T10:17:32;12.15;;;6.68;;
29210;SDS011;16250;49.932;10.980;2024-02-21T10:20:09;14.70;;;6.70;;
29210;SDS011;16250;49.932;10.980;2024-02-21T10:22:35;14.18;;;6.63;;
29210;SDS011;16250;49.932;10.980;2024-02-21T10:25:11;14.68;;;6.30;;
29210;SDS011;16250;49.932;10.980;2024-02-21T10:27:37;14.02;;;6.13;;
29210;SDS011;16250;49.932;10.980;2024-02-21T10:30:04;13.23;;;5.63;;
29210;SDS011;16250;49.932;10.980;2024-02-21T10:32:30;12.43;;;6.35;;
29210;SDS011;16250;49.932;10.980;2024-02-21T10:35:02;13.27;;;5.60;;
29210;SDS011;16250;49.932;10.980;2024-02-21T10:37:29;15.25;;;5.95;;
29210;SDS011;16250;49.932;10.980;2024-02-21T10:39:55;13.75;;;5.95;;
29210;SDS011;16250;49.932;10.980;2024-02-21T10:42:21;11.45;;;4.90;;
29210;SDS011;16250;49.932;10.980;2024-02-21T10:44:48;12.98;;;5.13;;
29210;SDS011;16250;49.932;10.980;2024-02-21T10:47:17;13.07;;;5.03;;
29210;SDS011;16250;49.932;10.980;2024-02-21T10:49:46;11.32;;;5.28;;
29210;SDS011;16250;49.932;10.980;2024-02-21T10:52:28;15.25;;;5.32;;
29210;SDS011;16250;49.932;10.980;2024-02-21T10:55:20;12.05;;;5.20;;
29210;SDS011;16250;49.932;10.980;2024-02-21T10:57:46;11.57;;;4.88;;
29210;SDS011;16250;49.932;10.980;2024-02-21T11:00:13;12.60;;;5.10;;
29210;SDS011;16250;49.932;10.980;2024-02-21T11:02:40;16.73;;;5.60;;
29210;SDS011;16250;49.932;10.980;2024-02-21T11:05:06;12.70;;;4.45;;
29210;SDS011;16250;49.932;10.980;2024-02-21T11:07:32;12.32;;;4.50;;
29210;SDS011;16250;49.932;10.980;2024-02-21T11:10:01;13.00;;;5.47;;
29210;SDS011;16250;49.932;10.980;2024-02-21T11:12:26;12.15;;;4.68;;
29210;SDS011;16250;49.932;10.980;2024-02-21T11:14:52;10.95;;;3.88;;
29210;SDS011;16250;49.932;10.980;2024-02-21T11:17:18;11.35;;;3.92;;
29210;SDS011;16250;49.932;10.980;2024-02-21T11:19:47;11.30;;;4.00;;
29210;SDS011;16250;49.932;10.980;2024-02-21T11:22:16;9.65;;;3.70;;
29210;SDS011;16250;49.932;10.980;2024-02-21T11:24:42;10.25;;;3.78;;
29210;SDS011;16250;49.932;10.980;2024-02-21T11:27:33;8.93;;;3.80;;
29210;SDS011;16250;49.932;10.980;2024-02-21T11:29:59;9.68;;;3.60;;
29210;SDS011;16250;49.932;10.980;2024-02-21T11:32:25;11.75;;;4.05;;
29210;SDS011;16250;49.932;10.980;2024-02-21T11:34:58;10.05;;;3.70;;
29210;SDS011;16250;49.932;10.980;2024-02-21T11:37:33;10.18;;;3.88;;
29210;SDS011;16250;49.932;10.980;2024-02-21T11:40:02;11.98;;;3.22;;
29210;SDS011;16250;49.932;10.980;2024-02-21T11:42:28;8.73;;;3.33;;
29210;SDS011;16250;49.932;10.980;2024-02-21T11:44:54;8.80;;;2.97;;
29210;SDS011;16250;49.932;10.980;2024-02-21T11:47:22;10.77;;;3.60;;
29210;SDS011;16250;49.932;10.980;2024-02-21T11:49:47;7.90;;;3.10;;
29210;SDS011;16250;49.932;10.980;2024-02-21T11:52:22;9.35;;;3.50;;
29210;SDS011;16250;49.932;10.980;2024-02-21T11:54:50;9.18;;;3.42;;
29210;SDS011;16250;49.932;10.980;2024-02-21T11:57:15;8.65;;;3.83;;
29210;SDS011;16250;49.932;10.980;2024-02-21T11:59:42;7.25;;;3.15;;
29210;SDS011;16250;49.932;10.980;2024-02-21T12:02:07;7.35;;;3.55;;
29210;SDS011;16250;49.932;10.980;2024-02-21T12:04:33;11.05;;;3.63;;
29210;SDS011;16250;49.932;10.980;2024-02-21T12:06:59;12.02;;;3.75;;
29210;SDS011;16250;49.932;10.980;2024-02-21T12:09:25;12.82;;;3.92;;
29210;SDS011;16250;49.932;10.980;2024-02-21T12:12:01;8.40;;;3.30;;
29210;SDS011;16250;49.932;10.980;2024-02-21T12:14:31;10.93;;;3.90;;
29210;SDS011;16250;49.932;10.980;2024-02-21T12:16:58;7.20;;;3.53;;
29210;SDS011;16250;49.932;10.980;2024-02-21T12:19:24;9.55;;;3.33;;
29210;SDS011;16250;49.932;10.980;2024-02-21T12:21:49;8.57;;;3.35;;
29210;SDS011;16250;49.932;10.980;2024-02-21T12:24:15;13.32;;;3.97;;
29210;SDS011;16250;49.932;10.980;2024-02-21T12:26:41;10.13;;;3.63;;
29210;SDS011;16250;49.932;10.980;2024-02-21T12:29:07;8.15;;;3.10;;
29210;SDS011;16250;49.932;10.980;2024-02-21T12:31:39;10.00;;;3.33;;
29210;SDS011;16250;49.932;10.980;2024-02-21T12:34:04;9.88;;;3.67;;
29210;SDS011;16250;49.932;10.980;2024-02-21T12:36:33;8.23;;;3.38;;
29210;SDS011;16250;49.932;10.980;2024-02-21T12:38:59;8.60;;;3.40;;
29210;SDS011;16250;49.932;10.980;2024-02-21T12:41:26;6.53;;;2.90;;
29210;SDS011;16250;49.932;10.980;2024-02-21T12:43:52;8.98;;;3.17;;
29210;SDS011;16250;49.932;10.980;2024-02-21T12:46:18;9.23;;;3.47;;
29210;SDS011;16250;49.932;10.980;2024-02-21T12:48:43;8.80;;;3.17;;
29210;SDS011;16250;49.932;10.980;2024-02-21T12:51:09;8.85;;;3.13;;
29210;SDS011;16250;49.932;10.980;2024-02-21T12:53:34;9.40;;;3.20;;
29210;SDS011;16250;49.932;10.980;2024-02-21T12:56:01;8.00;;;3.28;;
29210;SDS011;16250;49.932;10.980;2024-02-21T12:58:26;9.20;;;3.40;;
29210;SDS011;16250;49.932;10.980;2024-02-21T13:00:51;7.35;;;3.47;;
29210;SDS011;16250;49.932;10.980;2024-02-21T13:03:17;10.77;;;4.47;;
29210;SDS011;16250;49.932;10.980;2024-02-21T13:05:42;13.07;;;4.40;;
29210;SDS011;16250;49.932;10.980;2024-02-21T13:08:08;8.75;;;3.40;;
29210;SDS011;16250;49.932;10.980;2024-02-21T13:10:34;9.23;;;4.38;;
29210;SDS011;16250;49.932;10.980;2024-02-21T13:13:02;7.88;;;3.17;;
29210;SDS011;16250;49.932;10.980;2024-02-21T13:15:28;8.55;;;3.72;;
29210;SDS011;16250;49.932;10.980;2024-02-21T13:17:54;11.30;;;4.00;;
29210;SDS011;16250;49.932;10.980;2024-02-21T13:20:23;7.25;;;3.13;;
29210;SDS011;16250;49.932;10.980;2024-02-21T13:22:48;8.52;;;3.50;;
29210;SDS011;16250;49.932;10.980;2024-02-21T13:25:14;10.93;;;3.20;;
29210;SDS011;16250;49.932;10.980;2024-02-21T13:27:43;6.25;;;2.97;;
29210;SDS011;16250;49.932;10.980;2024-02-21T13:30:09;8.10;;;3.22;;
29210;SDS011;16250;49.932;10.980;2024-02-21T13:32:35;8.57;;;3.38;;
29210;SDS011;16250;49.932;10.980;2024-02-21T13:35:01;8.40;;;3.53;;
29210;SDS011;16250;49.932;10.980;2024-02-21T13:37:26;11.15;;;4.28;;
29210;SDS011;16250;49.932;10.980;2024-02-21T13:39:52;7.90;;;3.10;;
29210;SDS011;16250;49.932;10.980;2024-02-21T13:42:18;11.57;;;3.35;;
29210;SDS011;16250;49.932;10.980;2024-02-21T13:44:44;8.02;;;2.70;;
29210;SDS011;16250;49.932;10.980;2024-02-21T13:47:09;6.57;;;2.63;;
29210;SDS011;16250;49.932;10.980;2024-02-21T13:49:36;7.28;;;2.83;;
29210;SDS011;16250;49.932;10.980;2024-02-21T13:52:01;11.38;;;3.20;;
29210;SDS011;16250;49.932;10.980;2024-02-21T13:54:27;9.20;;;3.42;;
29210;SDS011;16250;49.932;10.980;2024-02-21T13:56:52;6.18;;;2.80;;
29210;SDS011;16250;49.932;10.980;2024-02-21T13:59:18;7.00;;;2.97;;
29210;SDS011;16250;49.932;10.980;2024-02-21T14:01:43;7.68;;;3.05;;
29210;SDS011;16250;49.932;10.980;2024-02-21T14:04:09;5.78;;;2.55;;
29210;SDS011;16250;49.932;10.980;2024-02-21T14:06:34;6.05;;;3.00;;
29210;SDS011;16250;49.932;10.980;2024-02-21T14:09:00;5.75;;;2.67;;
29210;SDS011;16250;49.932;10.980;2024-02-21T14:11:26;5.68;;;2.63;;
29210;SDS011;16250;49.932;10.980;2024-02-21T14:13:52;9.00;;;2.80;;
29210;SDS011;16250;49.932;10.980;2024-02-21T14:16:17;5.95;;;2.47;;